Terminal Aerodrome Forecast
Issued by NWS

Home | Current Version | Previous Version | Text Only | Print | Product List | Glossary On
Versions: 1 2 3 4 5 6 7 8 9 10 11 12
069
FTUS43 KLSX 171720
TAFSUS
TAF
KSUS 171720Z 1718/1818 36004KT P6SM BKN040
     FM180100 VRB03KT P6SM FEW250
     FM181000 VRB03KT 4SM BR FEW250
     FM181300 00000KT P6SM FEW250=

USA.gov is the U.S. government's official web portal to all federal, state and local government web resources and services.